createdAt,value
2023-03-13T00:02:34.747Z,99866.72
2023-03-13T00:07:36.363Z,99854.34
2023-03-13T00:12:37.950Z,99842.31
2023-03-13T00:17:39.609Z,99823.75
2023-03-13T00:22:41.202Z,99806.94
2023-03-13T00:27:42.850Z,99792.56
2023-03-13T00:32:46.339Z,99771.94
2023-03-13T00:37:48.052Z,99758.59
2023-03-13T00:42:49.658Z,99744.50
2023-03-13T00:47:51.746Z,99739.69
2023-03-13T00:52:53.494Z,99722.22
2023-03-13T00:57:55.124Z,99695.25
2023-03-13T01:02:57.031Z,99691.94
2023-03-13T01:07:58.978Z,99659.06
2023-03-13T01:13:00.745Z,99641.63
2023-03-13T01:18:02.435Z,99643.16
2023-03-13T01:23:04.056Z,99626.69
2023-03-13T01:28:05.656Z,99618.97
2023-03-13T01:33:07.296Z,99617.91
2023-03-13T01:38:09.218Z,99603.38
2023-03-13T01:43:26.964Z,99605.31
2023-03-13T01:48:52.506Z,99575.34
2023-03-13T01:54:11.771Z,99566.94
2023-03-13T01:59:17.022Z,99551.75
2023-03-13T02:04:21.848Z,99546.91
2023-03-13T02:09:27.067Z,99521.56
2023-03-13T02:14:33.636Z,99520.94
2023-03-13T02:19:41.803Z,99497.50
2023-03-13T02:25:09.244Z,99489.25
2023-03-13T02:30:12.082Z,99490.13
2023-03-13T02:35:17.134Z,99480.63
2023-03-13T02:40:24.511Z,99481.25
2023-03-13T02:45:26.432Z,99461.38
2023-03-13T02:50:28.160Z,99468.13
2023-03-13T02:55:47.859Z,99454.19
2023-03-13T03:00:49.766Z,99484.84
2023-03-13T03:05:52.328Z,99466.88
2023-03-13T03:10:54.096Z,99446.13
2023-03-13T03:15:57.770Z,99455.41
2023-03-13T03:20:59.481Z,99452.66
2023-03-13T03:26:01.623Z,99444.41
2023-03-13T03:31:06.689Z,99461.31
2023-03-13T03:36:12.364Z,99436.56
2023-03-13T03:41:14.593Z,99424.47
2023-03-13T03:46:16.394Z,99430.00
2023-03-13T03:51:18.281Z,99415.78
2023-03-13T03:56:22.130Z,99407.31
2023-03-13T04:01:28.708Z,99388.91
2023-03-13T04:06:30.664Z,99403.69
2023-03-13T04:11:32.887Z,99381.47
2023-03-13T04:16:35.041Z,99416.59
2023-03-13T04:21:36.995Z,99392.91
2023-03-13T04:26:43.963Z,99367.94
2023-03-13T04:31:45.777Z,99361.34
2023-03-13T04:37:06.133Z,99352.38
2023-03-13T04:42:13.884Z,99351.88
2023-03-13T04:47:35.822Z,99356.97
2023-03-13T04:52:51.342Z,99352.50
2023-03-13T04:58:01.055Z,99343.78
2023-03-13T05:03:19.735Z,99349.22
2023-03-13T05:08:32.226Z,99363.66
2023-03-13T05:14:00.067Z,99332.69
2023-03-13T05:19:19.400Z,99328.72
2023-03-13T05:24:41.905Z,99337.22
2023-03-13T05:30:17.362Z,99328.28
2023-03-13T05:35:30.567Z,99308.66
2023-03-13T05:40:47.745Z,99316.16
2023-03-13T05:46:09.557Z,99303.66
2023-03-13T05:51:20.625Z,99318.09
2023-03-13T05:56:32.751Z,99301.31
2023-03-13T06:01:45.271Z,99311.47
2023-03-13T06:06:54.611Z,99301.69
2023-03-13T06:11:56.826Z,99313.84
2023-03-13T06:16:58.765Z,99320.00
2023-03-13T06:22:02.736Z,99317.53
2023-03-13T06:27:04.547Z,99326.53
2023-03-13T06:32:06.703Z,99320.88
2023-03-13T06:37:08.442Z,99315.22
2023-03-13T06:42:10.238Z,99300.84
2023-03-13T06:47:14.366Z,99315.69
2023-03-13T06:52:18.763Z,99296.81
2023-03-13T06:57:20.951Z,99305.69
2023-03-13T07:02:22.629Z,99315.44
2023-03-13T07:07:31.796Z,99317.81
2023-03-13T07:12:37.584Z,99295.34
2023-03-13T07:17:39.340Z,99286.03
2023-03-13T07:22:41.138Z,99305.69
2023-03-13T07:27:42.772Z,99305.94
2023-03-13T07:32:44.618Z,99334.81
2023-03-13T07:37:46.337Z,99328.88
2023-03-13T07:42:47.965Z,99319.78
2023-03-13T07:47:49.562Z,99312.38
2023-03-13T07:52:51.357Z,99296.28
2023-03-13T07:57:52.997Z,99316.13
2023-03-13T08:02:54.675Z,99303.84
2023-03-13T08:07:56.339Z,99293.94
2023-03-13T08:12:58.070Z,99282.66
2023-03-13T08:17:59.689Z,99280.97
2023-03-13T08:23:01.364Z,99249.19
2023-03-13T08:28:03.509Z,99253.16
2023-03-13T08:33:07.526Z,99230.00
2023-03-13T08:38:09.468Z,99245.75
2023-03-13T08:43:11.120Z,99220.22
2023-03-13T08:48:12.789Z,99224.75
2023-03-13T08:53:14.446Z,99240.91
2023-03-13T08:58:16.123Z,99247.81
2023-03-13T09:03:18.135Z,99224.53
2023-03-13T09:08:19.793Z,99216.63
2023-03-13T09:13:21.440Z,99212.13
2023-03-13T09:18:24.017Z,99221.97
2023-03-13T09:23:26.478Z,99195.38
2023-03-13T09:28:28.953Z,99195.00
2023-03-13T09:33:30.611Z,99200.19
2023-03-13T09:38:32.573Z,99202.28
2023-03-13T09:43:58.336Z,99184.44
2023-03-13T09:49:04.009Z,99200.69
2023-03-13T09:54:26.194Z,99186.06
2023-03-13T09:59:30.123Z,99168.63
2023-03-13T10:04:46.856Z,99161.91
2023-03-13T10:09:48.548Z,99155.50
2023-03-13T10:15:08.364Z,99153.91
2023-03-13T10:20:33.404Z,99151.47
2023-03-13T10:25:39.787Z,99154.13
2023-03-13T10:30:47.706Z,99169.97
2023-03-13T10:36:10.131Z,99168.16
2023-03-13T10:41:29.078Z,99160.47
2023-03-13T10:46:33.339Z,99160.94
2023-03-13T10:51:38.817Z,99152.75
2023-03-13T10:56:40.656Z,99154.34
2023-03-13T11:01:42.683Z,99167.34
2023-03-13T11:06:50.838Z,99181.16
2023-03-13T11:12:02.116Z,99179.09
2023-03-13T11:17:23.577Z,99179.81
2023-03-13T11:22:53.602Z,99157.53
2023-03-13T11:27:58.186Z,99190.47
2023-03-13T11:33:10.326Z,99172.56
2023-03-13T11:38:38.165Z,99152.03
2023-03-13T11:44:11.634Z,99188.47
2023-03-13T11:49:41.781Z,99183.63
2023-03-13T11:54:49.462Z,99187.56
2023-03-13T12:00:16.393Z,99170.91
2023-03-13T12:05:21.062Z,99155.78
2023-03-13T12:10:40.070Z,99152.56
2023-03-13T12:15:49.718Z,99151.00
2023-03-13T12:20:57.429Z,99158.81
2023-03-13T12:26:06.507Z,99141.50
2023-03-13T12:31:22.820Z,99134.53
2023-03-13T12:36:38.355Z,99130.59
2023-03-13T12:41:45.072Z,99130.91
2023-03-13T12:46:53.484Z,99118.19
2023-03-13T12:52:12.893Z,99087.38
2023-03-13T12:57:27.462Z,99091.31
2023-03-13T13:02:30.758Z,99077.75
2023-03-13T13:07:35.575Z,99066.25
2023-03-13T13:12:41.522Z,99068.88
2023-03-13T13:17:51.536Z,99103.25
2023-03-13T13:22:54.015Z,99074.81
2023-03-13T13:27:56.143Z,99079.41
2023-03-13T13:33:20.417Z,99067.41
2023-03-13T13:38:30.164Z,99068.22
2023-03-13T13:44:10.405Z,99053.84
2023-03-13T13:49:18.894Z,99058.13
2023-03-13T13:54:42.315Z,99048.88
2023-03-13T13:59:47.109Z,99056.44
2023-03-13T14:05:16.585Z,99058.25
2023-03-13T14:10:27.213Z,99054.56
2023-03-13T14:15:34.624Z,99068.00
2023-03-13T14:20:38.804Z,99042.41
2023-03-13T14:25:50.934Z,99022.84
2023-03-13T14:30:56.644Z,99038.63
2023-03-13T14:35:58.527Z,99021.53
2023-03-13T14:41:00.320Z,99037.91
2023-03-13T14:46:15.871Z,99024.09
2023-03-13T14:51:22.602Z,99045.19
2023-03-13T14:56:33.638Z,99018.28
2023-03-13T15:01:35.460Z,99003.53
2023-03-13T15:06:38.358Z,98987.56
2023-03-13T15:11:43.312Z,99015.94
2023-03-13T15:16:44.974Z,99019.25
2023-03-13T15:21:51.665Z,98998.13
2023-03-13T15:26:53.342Z,98989.75
2023-03-13T15:31:55.045Z,98988.28
2023-03-13T15:36:56.701Z,98987.59
2023-03-13T15:41:58.401Z,98976.78
2023-03-13T15:47:00.147Z,98965.28
2023-03-13T15:52:01.791Z,98968.50
2023-03-13T15:57:03.592Z,98976.41
2023-03-13T16:02:14.701Z,98938.03
2023-03-13T16:07:20.831Z,98937.28
2023-03-13T16:12:22.510Z,98918.84
2023-03-13T16:17:25.964Z,98923.97
2023-03-13T16:22:27.657Z,98892.66
2023-03-13T16:27:29.574Z,98922.72
2023-03-13T16:32:31.238Z,98905.88
2023-03-13T16:37:32.949Z,98902.84
2023-03-13T16:42:34.606Z,98913.22
2023-03-13T16:47:36.310Z,98908.19
2023-03-13T16:52:37.840Z,98897.34
2023-03-13T16:57:39.710Z,98899.44
2023-03-13T17:02:41.455Z,98892.59
2023-03-13T17:07:45.007Z,98885.25
2023-03-13T17:12:46.772Z,98853.13
2023-03-13T17:17:51.971Z,98891.50
2023-03-13T17:22:56.339Z,98883.72
2023-03-13T17:27:57.990Z,98874.56
2023-03-13T17:33:00.881Z,98882.66
2023-03-13T17:38:03.165Z,98877.25
2023-03-13T17:43:04.834Z,98884.66
2023-03-13T17:48:12.237Z,98878.41
2023-03-13T17:53:13.845Z,98884.97
2023-03-13T17:58:15.565Z,98885.59
2023-03-13T18:03:17.471Z,98891.09
2023-03-13T18:08:19.188Z,98886.66
2023-03-13T18:13:20.772Z,98902.84
2023-03-13T18:18:22.479Z,98885.50
2023-03-13T18:23:24.153Z,98884.81
2023-03-13T18:28:25.821Z,98877.09
2023-03-13T18:33:28.234Z,98862.06
2023-03-13T18:38:29.905Z,98872.75
2023-03-13T18:43:31.528Z,98874.41
2023-03-13T18:48:33.178Z,98855.47
2023-03-13T18:53:34.850Z,98858.63
2023-03-13T18:58:36.513Z,98846.63
2023-03-13T19:03:38.196Z,98858.16
2023-03-13T19:08:39.802Z,98847.84
2023-03-13T19:13:41.451Z,98832.88
2023-03-13T19:18:44.392Z,98825.38
2023-03-13T19:23:46.405Z,98822.47
2023-03-13T19:28:48.100Z,98813.84
2023-03-13T19:33:50.469Z,98809.97
2023-03-13T19:38:52.059Z,98808.34
2023-03-13T19:43:53.648Z,98781.69
2023-03-13T19:48:57.457Z,98788.16
2023-03-13T19:53:59.241Z,98780.94
2023-03-13T19:59:03.597Z,98765.28
2023-03-13T20:04:05.348Z,98763.84
2023-03-13T20:09:09.751Z,98763.34
2023-03-13T20:14:11.532Z,98762.75
2023-03-13T20:19:13.268Z,98768.13
2023-03-13T20:24:14.904Z,98765.44
2023-03-13T20:29:16.567Z,98736.56
2023-03-13T20:34:18.220Z,98730.69
2023-03-13T20:39:19.918Z,98717.09
2023-03-13T20:44:22.048Z,98711.97
2023-03-13T20:49:23.685Z,98706.94
2023-03-13T20:54:25.325Z,98690.81
2023-03-13T20:59:29.037Z,98700.66
2023-03-13T21:04:30.752Z,98693.00
2023-03-13T21:09:34.116Z,98676.13
2023-03-13T21:14:36.439Z,98679.03
2023-03-13T21:19:38.089Z,98691.00
2023-03-13T21:24:40.650Z,98696.41
2023-03-13T21:29:44.074Z,98698.69
2023-03-13T21:34:46.408Z,98696.44
2023-03-13T21:39:52.314Z,98704.22
2023-03-13T21:44:54.216Z,98692.88
2023-03-13T21:49:56.545Z,98692.75
2023-03-13T21:54:58.542Z,98675.22
2023-03-13T22:00:00.161Z,98679.16
2023-03-13T22:05:02.565Z,98674.25
2023-03-13T22:10:04.589Z,98661.94
2023-03-13T22:15:07.059Z,98659.31
2023-03-13T22:20:10.633Z,98661.78
2023-03-13T22:25:12.251Z,98649.50
2023-03-13T22:30:14.064Z,98661.47
2023-03-13T22:35:16.403Z,98650.06
2023-03-13T22:40:20.341Z,98665.50
2023-03-13T22:45:22.528Z,98660.00
2023-03-13T22:50:25.794Z,98659.88
2023-03-13T22:55:27.766Z,98660.84
2023-03-13T23:00:29.435Z,98662.00
2023-03-13T23:05:31.020Z,98663.09
2023-03-13T23:10:32.668Z,98649.06
2023-03-13T23:15:54.727Z,98648.13
2023-03-13T23:20:55.926Z,98634.94
2023-03-13T23:26:01.703Z,98626.03
2023-03-13T23:31:29.644Z,98618.63
2023-03-13T23:36:31.214Z,98613.69
2023-03-13T23:41:32.865Z,98625.88
2023-03-13T23:46:34.497Z,98621.06
2023-03-13T23:51:36.333Z,98643.69
2023-03-13T23:56:37.906Z,98615.00
